sensor_id;sensor_type;location;lat;lon;timestamp;P1;durP1;ratioP1;P2;durP2;ratioP2
3801;SDS011;1916;51.798;12.246;2023-04-06T00:00:04;6.17;;;4.40;;
3801;SDS011;1916;51.798;12.246;2023-04-06T00:02:10;6.57;;;4.47;;
3801;SDS011;1916;51.798;12.246;2023-04-06T00:04:12;5.33;;;4.53;;
3801;SDS011;1916;51.798;12.246;2023-04-06T00:06:14;5.00;;;4.50;;
3801;SDS011;1916;51.798;12.246;2023-04-06T00:08:18;6.77;;;4.63;;
3801;SDS011;1916;51.798;12.246;2023-04-06T00:10:20;4.53;;;4.07;;
3801;SDS011;1916;51.798;12.246;2023-04-06T00:12:22;9.23;;;4.90;;
3801;SDS011;1916;51.798;12.246;2023-04-06T00:14:24;5.03;;;4.17;;
3801;SDS011;1916;51.798;12.246;2023-04-06T00:16:26;8.03;;;5.00;;
3801;SDS011;1916;51.798;12.246;2023-04-06T00:18:31;5.23;;;4.73;;
3801;SDS011;1916;51.798;12.246;2023-04-06T00:20:33;7.10;;;5.63;;
3801;SDS011;1916;51.798;12.246;2023-04-06T00:22:35;11.40;;;6.10;;
3801;SDS011;1916;51.798;12.246;2023-04-06T00:24:38;5.27;;;4.67;;
3801;SDS011;1916;51.798;12.246;2023-04-06T00:26:40;8.70;;;5.30;;
3801;SDS011;1916;51.798;12.246;2023-04-06T00:28:42;7.37;;;4.70;;
3801;SDS011;1916;51.798;12.246;2023-04-06T00:30:44;7.23;;;4.70;;
3801;SDS011;1916;51.798;12.246;2023-04-06T00:32:47;8.17;;;5.30;;
3801;SDS011;1916;51.798;12.246;2023-04-06T00:34:49;5.10;;;4.43;;
3801;SDS011;1916;51.798;12.246;2023-04-06T00:36:51;5.50;;;4.30;;
3801;SDS011;1916;51.798;12.246;2023-04-06T00:38:53;5.43;;;4.87;;
3801;SDS011;1916;51.798;12.246;2023-04-06T00:40:55;6.97;;;6.27;;
3801;SDS011;1916;51.798;12.246;2023-04-06T00:42:57;5.73;;;5.10;;
3801;SDS011;1916;51.798;12.246;2023-04-06T00:45:00;12.30;;;5.87;;
3801;SDS011;1916;51.798;12.246;2023-04-06T00:47:04;9.20;;;5.50;;
3801;SDS011;1916;51.798;12.246;2023-04-06T00:49:06;10.90;;;6.07;;
3801;SDS011;1916;51.798;12.246;2023-04-06T00:51:09;6.80;;;5.53;;
3801;SDS011;1916;51.798;12.246;2023-04-06T00:53:12;8.70;;;5.93;;
3801;SDS011;1916;51.798;12.246;2023-04-06T00:55:14;9.93;;;5.50;;
3801;SDS011;1916;51.798;12.246;2023-04-06T00:57:17;11.77;;;6.03;;
3801;SDS011;1916;51.798;12.246;2023-04-06T00:59:23;9.30;;;6.27;;
3801;SDS011;1916;51.798;12.246;2023-04-06T01:01:28;10.80;;;6.90;;
3801;SDS011;1916;51.798;12.246;2023-04-06T01:03:35;10.90;;;6.90;;
3801;SDS011;1916;51.798;12.246;2023-04-06T01:05:37;9.17;;;6.67;;
3801;SDS011;1916;51.798;12.246;2023-04-06T01:07:50;8.23;;;6.00;;
3801;SDS011;1916;51.798;12.246;2023-04-06T01:09:56;9.87;;;7.43;;
3801;SDS011;1916;51.798;12.246;2023-04-06T01:12:01;12.03;;;8.83;;
3801;SDS011;1916;51.798;12.246;2023-04-06T01:14:05;11.70;;;8.40;;
3801;SDS011;1916;51.798;12.246;2023-04-06T01:16:23;9.80;;;7.97;;
3801;SDS011;1916;51.798;12.246;2023-04-06T01:18:41;9.60;;;8.00;;
3801;SDS011;1916;51.798;12.246;2023-04-06T01:21:05;7.93;;;6.87;;
3801;SDS011;1916;51.798;12.246;2023-04-06T01:23:07;10.60;;;7.30;;
3801;SDS011;1916;51.798;12.246;2023-04-06T01:25:12;9.47;;;6.33;;
3801;SDS011;1916;51.798;12.246;2023-04-06T01:27:28;7.47;;;6.70;;
3801;SDS011;1916;51.798;12.246;2023-04-06T01:29:43;8.83;;;6.00;;
3801;SDS011;1916;51.798;12.246;2023-04-06T01:31:53;10.37;;;6.40;;
3801;SDS011;1916;51.798;12.246;2023-04-06T01:33:55;6.77;;;6.10;;
3801;SDS011;1916;51.798;12.246;2023-04-06T01:35:59;9.60;;;6.10;;
3801;SDS011;1916;51.798;12.246;2023-04-06T01:38:02;7.33;;;5.77;;
3801;SDS011;1916;51.798;12.246;2023-04-06T01:40:07;8.37;;;5.93;;
3801;SDS011;1916;51.798;12.246;2023-04-06T01:42:17;9.23;;;5.13;;
3801;SDS011;1916;51.798;12.246;2023-04-06T01:44:21;7.27;;;5.73;;
3801;SDS011;1916;51.798;12.246;2023-04-06T01:46:31;6.17;;;5.57;;
3801;SDS011;1916;51.798;12.246;2023-04-06T01:48:35;9.80;;;6.17;;
3801;SDS011;1916;51.798;12.246;2023-04-06T01:50:48;15.10;;;5.50;;
3801;SDS011;1916;51.798;12.246;2023-04-06T01:52:56;6.80;;;5.30;;
3801;SDS011;1916;51.798;12.246;2023-04-06T01:55:00;9.07;;;6.00;;
3801;SDS011;1916;51.798;12.246;2023-04-06T01:57:20;6.63;;;5.40;;
3801;SDS011;1916;51.798;12.246;2023-04-06T01:59:43;5.87;;;5.13;;
3801;SDS011;1916;51.798;12.246;2023-04-06T02:01:54;7.13;;;5.50;;
3801;SDS011;1916;51.798;12.246;2023-04-06T02:03:59;8.10;;;5.30;;
3801;SDS011;1916;51.798;12.246;2023-04-06T02:06:01;6.37;;;5.77;;
3801;SDS011;1916;51.798;12.246;2023-04-06T02:08:09;7.27;;;5.43;;
3801;SDS011;1916;51.798;12.246;2023-04-06T02:10:13;6.90;;;5.70;;
3801;SDS011;1916;51.798;12.246;2023-04-06T02:12:17;6.33;;;5.70;;
3801;SDS011;1916;51.798;12.246;2023-04-06T02:14:19;6.90;;;5.10;;
3801;SDS011;1916;51.798;12.246;2023-04-06T02:16:26;7.73;;;4.90;;
3801;SDS011;1916;51.798;12.246;2023-04-06T02:18:32;7.87;;;5.00;;
3801;SDS011;1916;51.798;12.246;2023-04-06T02:20:34;6.43;;;5.27;;
3801;SDS011;1916;51.798;12.246;2023-04-06T02:22:36;5.63;;;5.00;;
3801;SDS011;1916;51.798;12.246;2023-04-06T02:24:38;12.60;;;5.50;;
3801;SDS011;1916;51.798;12.246;2023-04-06T02:26:40;5.90;;;4.60;;
3801;SDS011;1916;51.798;12.246;2023-04-06T02:28:43;6.97;;;5.70;;
3801;SDS011;1916;51.798;12.246;2023-04-06T02:30:46;7.37;;;5.40;;
3801;SDS011;1916;51.798;12.246;2023-04-06T02:32:49;5.43;;;4.90;;
3801;SDS011;1916;51.798;12.246;2023-04-06T02:34:51;6.03;;;4.60;;
3801;SDS011;1916;51.798;12.246;2023-04-06T02:36:55;5.83;;;5.23;;
3801;SDS011;1916;51.798;12.246;2023-04-06T02:38:57;5.60;;;5.00;;
3801;SDS011;1916;51.798;12.246;2023-04-06T02:40:59;7.13;;;5.33;;
3801;SDS011;1916;51.798;12.246;2023-04-06T02:43:03;6.50;;;5.03;;
3801;SDS011;1916;51.798;12.246;2023-04-06T02:45:06;7.83;;;5.50;;
3801;SDS011;1916;51.798;12.246;2023-04-06T02:47:15;7.80;;;5.57;;
3801;SDS011;1916;51.798;12.246;2023-04-06T02:49:22;6.00;;;4.83;;
3801;SDS011;1916;51.798;12.246;2023-04-06T02:51:27;6.60;;;5.60;;
3801;SDS011;1916;51.798;12.246;2023-04-06T02:53:39;7.80;;;5.07;;
3801;SDS011;1916;51.798;12.246;2023-04-06T02:55:42;7.77;;;5.37;;
3801;SDS011;1916;51.798;12.246;2023-04-06T02:57:44;9.03;;;5.10;;
3801;SDS011;1916;51.798;12.246;2023-04-06T02:59:47;9.63;;;5.50;;
3801;SDS011;1916;51.798;12.246;2023-04-06T03:01:54;5.10;;;4.63;;
3801;SDS011;1916;51.798;12.246;2023-04-06T03:03:57;7.70;;;4.73;;
3801;SDS011;1916;51.798;12.246;2023-04-06T03:06:01;7.30;;;5.70;;
3801;SDS011;1916;51.798;12.246;2023-04-06T03:08:05;12.67;;;5.50;;
3801;SDS011;1916;51.798;12.246;2023-04-06T03:10:15;6.67;;;4.67;;
3801;SDS011;1916;51.798;12.246;2023-04-06T03:12:19;11.07;;;4.70;;
3801;SDS011;1916;51.798;12.246;2023-04-06T03:14:57;6.50;;;5.50;;
3801;SDS011;1916;51.798;12.246;2023-04-06T03:17:00;7.17;;;5.37;;
3801;SDS011;1916;51.798;12.246;2023-04-06T03:19:03;7.30;;;4.97;;
3801;SDS011;1916;51.798;12.246;2023-04-06T03:21:08;6.40;;;5.50;;
3801;SDS011;1916;51.798;12.246;2023-04-06T03:23:20;9.30;;;5.90;;
3801;SDS011;1916;51.798;12.246;2023-04-06T03:25:28;7.40;;;5.67;;
3801;SDS011;1916;51.798;12.246;2023-04-06T03:27:35;7.50;;;5.63;;
3801;SDS011;1916;51.798;12.246;2023-04-06T03:29:39;8.20;;;5.87;;
3801;SDS011;1916;51.798;12.246;2023-04-06T03:31:44;8.17;;;5.43;;
3801;SDS011;1916;51.798;12.246;2023-04-06T03:34:06;10.60;;;5.40;;
3801;SDS011;1916;51.798;12.246;2023-04-06T03:36:10;6.87;;;5.90;;
3801;SDS011;1916;51.798;12.246;2023-04-06T03:38:15;8.10;;;6.20;;
3801;SDS011;1916;51.798;12.246;2023-04-06T03:40:17;7.90;;;6.43;;
3801;SDS011;1916;51.798;12.246;2023-04-06T03:42:21;15.87;;;6.33;;
3801;SDS011;1916;51.798;12.246;2023-04-06T03:44:27;8.33;;;6.20;;
3801;SDS011;1916;51.798;12.246;2023-04-06T03:46:29;9.57;;;7.17;;
3801;SDS011;1916;51.798;12.246;2023-04-06T03:48:33;7.63;;;5.83;;
3801;SDS011;1916;51.798;12.246;2023-04-06T03:50:38;6.53;;;5.93;;
3801;SDS011;1916;51.798;12.246;2023-04-06T03:52:41;7.83;;;5.77;;
3801;SDS011;1916;51.798;12.246;2023-04-06T03:54:43;9.67;;;6.90;;
3801;SDS011;1916;51.798;12.246;2023-04-06T03:56:45;8.93;;;6.50;;
3801;SDS011;1916;51.798;12.246;2023-04-06T03:58:47;11.27;;;6.50;;
3801;SDS011;1916;51.798;12.246;2023-04-06T04:00:54;8.40;;;6.07;;
3801;SDS011;1916;51.798;12.246;2023-04-06T04:02:57;9.70;;;7.00;;
3801;SDS011;1916;51.798;12.246;2023-04-06T04:04:59;8.07;;;6.90;;
3801;SDS011;1916;51.798;12.246;2023-04-06T04:07:01;11.40;;;7.63;;
3801;SDS011;1916;51.798;12.246;2023-04-06T04:09:03;7.30;;;6.23;;
3801;SDS011;1916;51.798;12.246;2023-04-06T04:11:06;10.80;;;6.40;;
3801;SDS011;1916;51.798;12.246;2023-04-06T04:13:08;7.57;;;6.67;;
3801;SDS011;1916;51.798;12.246;2023-04-06T04:15:10;9.83;;;6.87;;
3801;SDS011;1916;51.798;12.246;2023-04-06T04:17:12;8.90;;;6.50;;
3801;SDS011;1916;51.798;12.246;2023-04-06T04:19:15;12.03;;;6.40;;
3801;SDS011;1916;51.798;12.246;2023-04-06T04:21:17;8.27;;;6.70;;
3801;SDS011;1916;51.798;12.246;2023-04-06T04:23:19;9.83;;;7.30;;
3801;SDS011;1916;51.798;12.246;2023-04-06T04:25:22;13.30;;;7.80;;
3801;SDS011;1916;51.798;12.246;2023-04-06T04:27:25;8.03;;;7.23;;
3801;SDS011;1916;51.798;12.246;2023-04-06T04:29:27;9.37;;;7.20;;
3801;SDS011;1916;51.798;12.246;2023-04-06T04:31:33;15.50;;;8.20;;
3801;SDS011;1916;51.798;12.246;2023-04-06T04:33:38;11.00;;;7.70;;
3801;SDS011;1916;51.798;12.246;2023-04-06T04:35:46;10.73;;;7.63;;
3801;SDS011;1916;51.798;12.246;2023-04-06T04:37:52;14.70;;;7.60;;
3801;SDS011;1916;51.798;12.246;2023-04-06T04:39:55;11.93;;;7.47;;
3801;SDS011;1916;51.798;12.246;2023-04-06T04:41:57;12.13;;;8.30;;
3801;SDS011;1916;51.798;12.246;2023-04-06T04:43:59;9.50;;;8.00;;
3801;SDS011;1916;51.798;12.246;2023-04-06T04:46:02;9.83;;;8.30;;
3801;SDS011;1916;51.798;12.246;2023-04-06T04:48:12;11.10;;;7.90;;
3801;SDS011;1916;51.798;12.246;2023-04-06T04:50:31;10.57;;;7.87;;
3801;SDS011;1916;51.798;12.246;2023-04-06T04:52:34;11.07;;;7.50;;
3801;SDS011;1916;51.798;12.246;2023-04-06T04:54:48;12.37;;;7.03;;
3801;SDS011;1916;51.798;12.246;2023-04-06T04:56:59;11.77;;;8.17;;
3801;SDS011;1916;51.798;12.246;2023-04-06T04:59:12;22.87;;;8.00;;
3801;SDS011;1916;51.798;12.246;2023-04-06T05:01:18;9.83;;;7.93;;
3801;SDS011;1916;51.798;12.246;2023-04-06T05:03:22;17.73;;;7.13;;
3801;SDS011;1916;51.798;12.246;2023-04-06T05:05:38;11.83;;;7.20;;
3801;SDS011;1916;51.798;12.246;2023-04-06T05:07:41;12.67;;;7.60;;
3801;SDS011;1916;51.798;12.246;2023-04-06T05:09:49;15.00;;;9.03;;
3801;SDS011;1916;51.798;12.246;2023-04-06T05:11:53;10.67;;;7.93;;
3801;SDS011;1916;51.798;12.246;2023-04-06T05:13:55;8.37;;;7.00;;
3801;SDS011;1916;51.798;12.246;2023-04-06T05:15:59;9.20;;;7.57;;
3801;SDS011;1916;51.798;12.246;2023-04-06T05:18:04;10.13;;;8.20;;
3801;SDS011;1916;51.798;12.246;2023-04-06T05:20:09;9.90;;;7.73;;
3801;SDS011;1916;51.798;12.246;2023-04-06T05:22:19;9.00;;;7.77;;
3801;SDS011;1916;51.798;12.246;2023-04-06T05:24:29;13.03;;;8.70;;
3801;SDS011;1916;51.798;12.246;2023-04-06T05:26:32;9.60;;;7.93;;
3801;SDS011;1916;51.798;12.246;2023-04-06T05:28:42;17.03;;;8.73;;
3801;SDS011;1916;51.798;12.246;2023-04-06T05:30:46;9.60;;;7.30;;
3801;SDS011;1916;51.798;12.246;2023-04-06T05:32:50;9.00;;;8.07;;
3801;SDS011;1916;51.798;12.246;2023-04-06T05:34:53;9.43;;;7.80;;
3801;SDS011;1916;51.798;12.246;2023-04-06T05:36:56;10.20;;;7.27;;
3801;SDS011;1916;51.798;12.246;2023-04-06T05:38:59;10.13;;;7.80;;
3801;SDS011;1916;51.798;12.246;2023-04-06T05:41:09;12.17;;;7.90;;
3801;SDS011;1916;51.798;12.246;2023-04-06T05:43:15;10.93;;;7.90;;
3801;SDS011;1916;51.798;12.246;2023-04-06T05:45:21;9.63;;;7.57;;
3801;SDS011;1916;51.798;12.246;2023-04-06T05:47:28;7.70;;;6.90;;
3801;SDS011;1916;51.798;12.246;2023-04-06T05:49:38;10.77;;;7.77;;
3801;SDS011;1916;51.798;12.246;2023-04-06T05:51:46;13.10;;;8.57;;
3801;SDS011;1916;51.798;12.246;2023-04-06T05:53:48;7.37;;;6.57;;
3801;SDS011;1916;51.798;12.246;2023-04-06T05:55:50;10.63;;;7.90;;
3801;SDS011;1916;51.798;12.246;2023-04-06T05:57:55;8.57;;;7.20;;
3801;SDS011;1916;51.798;12.246;2023-04-06T05:59:57;9.00;;;7.20;;
3801;SDS011;1916;51.798;12.246;2023-04-06T06:02:13;8.13;;;6.17;;
3801;SDS011;1916;51.798;12.246;2023-04-06T06:04:19;7.60;;;6.53;;
3801;SDS011;1916;51.798;12.246;2023-04-06T06:06:24;7.67;;;6.80;;
3801;SDS011;1916;51.798;12.246;2023-04-06T06:08:50;7.77;;;6.77;;
3801;SDS011;1916;51.798;12.246;2023-04-06T06:10:54;7.13;;;5.93;;
3801;SDS011;1916;51.798;12.246;2023-04-06T06:12:58;8.57;;;5.87;;
3801;SDS011;1916;51.798;12.246;2023-04-06T06:15:01;10.33;;;6.10;;
3801;SDS011;1916;51.798;12.246;2023-04-06T06:17:07;6.33;;;5.73;;
3801;SDS011;1916;51.798;12.246;2023-04-06T06:19:10;12.30;;;6.17;;
3801;SDS011;1916;51.798;12.246;2023-04-06T06:21:13;6.20;;;5.10;;
3801;SDS011;1916;51.798;12.246;2023-04-06T06:23:16;7.73;;;5.50;;
3801;SDS011;1916;51.798;12.246;2023-04-06T06:25:18;7.50;;;5.30;;
3801;SDS011;1916;51.798;12.246;2023-04-06T06:27:22;7.03;;;5.27;;
3801;SDS011;1916;51.798;12.246;2023-04-06T06:29:24;9.20;;;5.30;;
3801;SDS011;1916;51.798;12.246;2023-04-06T06:31:26;9.37;;;5.30;;
3801;SDS011;1916;51.798;12.246;2023-04-06T06:33:29;8.63;;;5.30;;
3801;SDS011;1916;51.798;12.246;2023-04-06T06:35:32;6.37;;;5.13;;
3801;SDS011;1916;51.798;12.246;2023-04-06T06:37:37;10.00;;;5.70;;
3801;SDS011;1916;51.798;12.246;2023-04-06T06:39:42;7.93;;;5.57;;
3801;SDS011;1916;51.798;12.246;2023-04-06T06:41:44;5.63;;;4.90;;
3801;SDS011;1916;51.798;12.246;2023-04-06T06:43:47;9.67;;;5.23;;
3801;SDS011;1916;51.798;12.246;2023-04-06T06:45:49;8.20;;;5.97;;
3801;SDS011;1916;51.798;12.246;2023-04-06T06:47:51;13.93;;;4.87;;
3801;SDS011;1916;51.798;12.246;2023-04-06T06:49:56;5.23;;;4.57;;
3801;SDS011;1916;51.798;12.246;2023-04-06T06:51:58;5.60;;;5.07;;
3801;SDS011;1916;51.798;12.246;2023-04-06T06:54:01;7.10;;;5.40;;
3801;SDS011;1916;51.798;12.246;2023-04-06T06:56:03;8.50;;;5.67;;
3801;SDS011;1916;51.798;12.246;2023-04-06T06:58:05;12.83;;;6.40;;
3801;SDS011;1916;51.798;12.246;2023-04-06T07:00:08;8.00;;;5.17;;
3801;SDS011;1916;51.798;12.246;2023-04-06T07:02:15;7.40;;;5.40;;
3801;SDS011;1916;51.798;12.246;2023-04-06T07:04:17;8.23;;;5.73;;
3801;SDS011;1916;51.798;12.246;2023-04-06T07:06:19;7.60;;;4.97;;
3801;SDS011;1916;51.798;12.246;2023-04-06T07:08:22;5.30;;;4.70;;
3801;SDS011;1916;51.798;12.246;2023-04-06T07:10:25;5.70;;;5.00;;
3801;SDS011;1916;51.798;12.246;2023-04-06T07:12:28;7.00;;;5.63;;
3801;SDS011;1916;51.798;12.246;2023-04-06T07:14:30;9.63;;;5.60;;
3801;SDS011;1916;51.798;12.246;2023-04-06T07:16:32;7.40;;;4.60;;
3801;SDS011;1916;51.798;12.246;2023-04-06T07:18:35;7.93;;;5.13;;
3801;SDS011;1916;51.798;12.246;2023-04-06T07:20:38;6.80;;;5.13;;
3801;SDS011;1916;51.798;12.246;2023-04-06T07:22:41;8.77;;;5.47;;
3801;SDS011;1916;51.798;12.246;2023-04-06T07:24:44;6.70;;;4.93;;
3801;SDS011;1916;51.798;12.246;2023-04-06T07:26:46;7.53;;;5.90;;
3801;SDS011;1916;51.798;12.246;2023-04-06T07:28:48;10.27;;;5.20;;
3801;SDS011;1916;51.798;12.246;2023-04-06T07:30:51;6.77;;;4.90;;
3801;SDS011;1916;51.798;12.246;2023-04-06T07:32:55;7.77;;;5.47;;
3801;SDS011;1916;51.798;12.246;2023-04-06T07:34:58;8.20;;;5.97;;
3801;SDS011;1916;51.798;12.246;2023-04-06T07:37:00;9.40;;;5.73;;
3801;SDS011;1916;51.798;12.246;2023-04-06T07:39:05;7.87;;;5.27;;
3801;SDS011;1916;51.798;12.246;2023-04-06T07:41:08;9.50;;;6.27;;
3801;SDS011;1916;51.798;12.246;2023-04-06T07:43:11;8.20;;;6.73;;
3801;SDS011;1916;51.798;12.246;2023-04-06T07:45:13;8.23;;;6.10;;
3801;SDS011;1916;51.798;12.246;2023-04-06T07:47:17;6.97;;;5.83;;
3801;SDS011;1916;51.798;12.246;2023-04-06T07:49:19;8.73;;;6.23;;
3801;SDS011;1916;51.798;12.246;2023-04-06T07:51:23;8.07;;;6.00;;
3801;SDS011;1916;51.798;12.246;2023-04-06T07:53:25;7.33;;;6.10;;
3801;SDS011;1916;51.798;12.246;2023-04-06T07:55:28;6.90;;;6.20;;
3801;SDS011;1916;51.798;12.246;2023-04-06T07:57:30;9.00;;;6.00;;
3801;SDS011;1916;51.798;12.246;2023-04-06T07:59:32;9.00;;;6.80;;
3801;SDS011;1916;51.798;12.246;2023-04-06T08:01:34;7.70;;;6.23;;
3801;SDS011;1916;51.798;12.246;2023-04-06T08:03:36;9.13;;;6.57;;
3801;SDS011;1916;51.798;12.246;2023-04-06T08:05:39;7.40;;;5.93;;
3801;SDS011;1916;51.798;12.246;2023-04-06T08:07:41;7.13;;;6.10;;
3801;SDS011;1916;51.798;12.246;2023-04-06T08:09:44;8.80;;;6.90;;
3801;SDS011;1916;51.798;12.246;2023-04-06T08:11:46;9.77;;;6.17;;
3801;SDS011;1916;51.798;12.246;2023-04-06T08:13:50;8.80;;;6.40;;
3801;SDS011;1916;51.798;12.246;2023-04-06T08:15:52;8.93;;;6.60;;
3801;SDS011;1916;51.798;12.246;2023-04-06T08:17:55;7.20;;;6.50;;
3801;SDS011;1916;51.798;12.246;2023-04-06T08:19:59;7.00;;;5.80;;
3801;SDS011;1916;51.798;12.246;2023-04-06T08:22:02;11.07;;;6.60;;
3801;SDS011;1916;51.798;12.246;2023-04-06T08:24:04;7.50;;;5.80;;
3801;SDS011;1916;51.798;12.246;2023-04-06T08:26:08;9.20;;;5.73;;
3801;SDS011;1916;51.798;12.246;2023-04-06T08:28:11;9.13;;;7.00;;
3801;SDS011;1916;51.798;12.246;2023-04-06T08:30:13;9.73;;;7.17;;
3801;SDS011;1916;51.798;12.246;2023-04-06T08:32:17;11.80;;;6.83;;
3801;SDS011;1916;51.798;12.246;2023-04-06T08:34:20;9.23;;;7.00;;
3801;SDS011;1916;51.798;12.246;2023-04-06T08:36:22;7.10;;;6.40;;
3801;SDS011;1916;51.798;12.246;2023-04-06T08:38:25;7.20;;;6.50;;
3801;SDS011;1916;51.798;12.246;2023-04-06T08:40:27;8.40;;;6.40;;
3801;SDS011;1916;51.798;12.246;2023-04-06T08:42:31;9.23;;;6.20;;
3801;SDS011;1916;51.798;12.246;2023-04-06T08:44:35;6.97;;;6.13;;
3801;SDS011;1916;51.798;12.246;2023-04-06T08:46:39;7.30;;;5.57;;
3801;SDS011;1916;51.798;12.246;2023-04-06T08:48:42;7.60;;;6.47;;
3801;SDS011;1916;51.798;12.246;2023-04-06T08:50:44;9.90;;;6.90;;
3801;SDS011;1916;51.798;12.246;2023-04-06T08:52:47;6.33;;;5.67;;
3801;SDS011;1916;51.798;12.246;2023-04-06T08:54:50;8.33;;;6.50;;
3801;SDS011;1916;51.798;12.246;2023-04-06T08:56:52;7.93;;;5.97;;
3801;SDS011;1916;51.798;12.246;2023-04-06T08:58:57;8.30;;;5.97;;
3801;SDS011;1916;51.798;12.246;2023-04-06T09:01:11;8.63;;;6.40;;
3801;SDS011;1916;51.798;12.246;2023-04-06T09:03:14;9.33;;;6.80;;
3801;SDS011;1916;51.798;12.246;2023-04-06T09:05:17;7.87;;;6.43;;
3801;SDS011;1916;51.798;12.246;2023-04-06T09:07:19;9.63;;;6.37;;
3801;SDS011;1916;51.798;12.246;2023-04-06T09:09:22;10.33;;;6.80;;
3801;SDS011;1916;51.798;12.246;2023-04-06T09:11:26;7.73;;;6.63;;
3801;SDS011;1916;51.798;12.246;2023-04-06T09:13:29;7.10;;;6.23;;
3801;SDS011;1916;51.798;12.246;2023-04-06T09:15:31;8.30;;;7.13;;
3801;SDS011;1916;51.798;12.246;2023-04-06T09:17:34;8.97;;;7.30;;
3801;SDS011;1916;51.798;12.246;2023-04-06T09:19:45;9.80;;;6.13;;
3801;SDS011;1916;51.798;12.246;2023-04-06T09:21:48;11.20;;;7.47;;
3801;SDS011;1916;51.798;12.246;2023-04-06T09:23:59;9.90;;;7.60;;
3801;SDS011;1916;51.798;12.246;2023-04-06T09:26:06;9.37;;;6.70;;
3801;SDS011;1916;51.798;12.246;2023-04-06T09:28:12;11.00;;;6.87;;
3801;SDS011;1916;51.798;12.246;2023-04-06T09:30:14;7.80;;;6.57;;
3801;SDS011;1916;51.798;12.246;2023-04-06T09:32:18;9.50;;;6.73;;
3801;SDS011;1916;51.798;12.246;2023-04-06T09:34:21;7.10;;;6.40;;
3801;SDS011;1916;51.798;12.246;2023-04-06T09:36:30;7.63;;;6.80;;
3801;SDS011;1916;51.798;12.246;2023-04-06T09:38:34;11.00;;;7.17;;
3801;SDS011;1916;51.798;12.246;2023-04-06T09:40:36;8.00;;;7.13;;
3801;SDS011;1916;51.798;12.246;2023-04-06T09:43:01;9.73;;;6.33;;
3801;SDS011;1916;51.798;12.246;2023-04-06T09:45:06;9.93;;;7.07;;
3801;SDS011;1916;51.798;12.246;2023-04-06T09:47:09;14.50;;;7.00;;
3801;SDS011;1916;51.798;12.246;2023-04-06T09:49:12;9.70;;;6.97;;
3801;SDS011;1916;51.798;12.246;2023-04-06T09:51:15;10.50;;;6.97;;
3801;SDS011;1916;51.798;12.246;2023-04-06T09:53:19;10.30;;;7.00;;
3801;SDS011;1916;51.798;12.246;2023-04-06T09:55:34;9.77;;;8.07;;
3801;SDS011;1916;51.798;12.246;2023-04-06T09:57:44;10.00;;;8.00;;
3801;SDS011;1916;51.798;12.246;2023-04-06T09:59:52;8.60;;;6.70;;
3801;SDS011;1916;51.798;12.246;2023-04-06T10:02:16;11.20;;;6.97;;
3801;SDS011;1916;51.798;12.246;2023-04-06T10:04:33;13.20;;;7.80;;
3801;SDS011;1916;51.798;12.246;2023-04-06T10:06:36;9.33;;;7.07;;
3801;SDS011;1916;51.798;12.246;2023-04-06T10:08:39;9.80;;;8.57;;
3801;SDS011;1916;51.798;12.246;2023-04-06T10:10:43;8.73;;;6.63;;
3801;SDS011;1916;51.798;12.246;2023-04-06T10:12:45;11.30;;;7.60;;
3801;SDS011;1916;51.798;12.246;2023-04-06T10:14:48;7.40;;;6.60;;
3801;SDS011;1916;51.798;12.246;2023-04-06T10:16:51;9.40;;;6.43;;
3801;SDS011;1916;51.798;12.246;2023-04-06T10:18:57;9.13;;;6.50;;
3801;SDS011;1916;51.798;12.246;2023-04-06T10:21:06;8.73;;;7.20;;
3801;SDS011;1916;51.798;12.246;2023-04-06T10:25:32;9.37;;;6.87;;
3801;SDS011;1916;51.798;12.246;2023-04-06T10:27:36;10.57;;;6.97;;
3801;SDS011;1916;51.798;12.246;2023-04-06T10:29:42;9.97;;;6.77;;
3801;SDS011;1916;51.798;12.246;2023-04-06T10:31:49;8.83;;;7.67;;
3801;SDS011;1916;51.798;12.246;2023-04-06T10:33:55;8.63;;;6.83;;
3801;SDS011;1916;51.798;12.246;2023-04-06T10:36:09;11.57;;;7.13;;
3801;SDS011;1916;51.798;12.246;2023-04-06T10:38:12;6.87;;;6.00;;
3801;SDS011;1916;51.798;12.246;2023-04-06T10:40:20;7.43;;;6.73;;
3801;SDS011;1916;51.798;12.246;2023-04-06T10:42:24;11.60;;;7.43;;
3801;SDS011;1916;51.798;12.246;2023-04-06T10:44:27;11.27;;;7.70;;
3801;SDS011;1916;51.798;12.246;2023-04-06T10:46:30;8.53;;;7.60;;
3801;SDS011;1916;51.798;12.246;2023-04-06T10:48:43;10.30;;;7.57;;
3801;SDS011;1916;51.798;12.246;2023-04-06T10:50:49;9.47;;;7.70;;
3801;SDS011;1916;51.798;12.246;2023-04-06T10:52:59;9.67;;;7.40;;
3801;SDS011;1916;51.798;12.246;2023-04-06T10:55:02;10.50;;;7.73;;
3801;SDS011;1916;51.798;12.246;2023-04-06T10:57:04;7.87;;;6.83;;
3801;SDS011;1916;51.798;12.246;2023-04-06T10:59:06;11.60;;;8.30;;
3801;SDS011;1916;51.798;12.246;2023-04-06T11:01:09;12.80;;;7.00;;
3801;SDS011;1916;51.798;12.246;2023-04-06T11:03:42;9.47;;;7.00;;
3801;SDS011;1916;51.798;12.246;2023-04-06T11:05:48;11.63;;;8.50;;
3801;SDS011;1916;51.798;12.246;2023-04-06T11:07:51;11.10;;;6.60;;
3801;SDS011;1916;51.798;12.246;2023-04-06T11:09:54;9.40;;;7.43;;
3801;SDS011;1916;51.798;12.246;2023-04-06T11:12:22;9.30;;;7.10;;
3801;SDS011;1916;51.798;12.246;2023-04-06T11:14:25;14.20;;;7.77;;
3801;SDS011;1916;51.798;12.246;2023-04-06T11:16:31;11.37;;;7.70;;
3801;SDS011;1916;51.798;12.246;2023-04-06T11:18:34;11.10;;;8.70;;
3801;SDS011;1916;51.798;12.246;2023-04-06T11:20:37;10.77;;;7.50;;
3801;SDS011;1916;51.798;12.246;2023-04-06T11:22:49;9.50;;;8.00;;
3801;SDS011;1916;51.798;12.246;2023-04-06T11:25:12;10.40;;;8.23;;
3801;SDS011;1916;51.798;12.246;2023-04-06T11:27:15;9.00;;;6.87;;
3801;SDS011;1916;51.798;12.246;2023-04-06T11:29:18;11.23;;;7.50;;
3801;SDS011;1916;51.798;12.246;2023-04-06T11:31:25;9.30;;;6.57;;
3801;SDS011;1916;51.798;12.246;2023-04-06T11:33:28;9.10;;;7.60;;
3801;SDS011;1916;51.798;12.246;2023-04-06T11:35:31;8.27;;;6.70;;
3801;SDS011;1916;51.798;12.246;2023-04-06T11:37:34;7.90;;;6.67;;
3801;SDS011;1916;51.798;12.246;2023-04-06T11:39:42;14.30;;;8.57;;
3801;SDS011;1916;51.798;12.246;2023-04-06T11:41:53;7.70;;;6.90;;
3801;SDS011;1916;51.798;12.246;2023-04-06T11:43:57;10.53;;;7.90;;
3801;SDS011;1916;51.798;12.246;2023-04-06T11:46:03;9.77;;;7.00;;
3801;SDS011;1916;51.798;12.246;2023-04-06T11:48:06;8.10;;;6.93;;
3801;SDS011;1916;51.798;12.246;2023-04-06T11:50:20;8.40;;;6.90;;
3801;SDS011;1916;51.798;12.246;2023-04-06T11:52:23;8.30;;;6.60;;
3801;SDS011;1916;51.798;12.246;2023-04-06T11:54:36;7.50;;;6.57;;
3801;SDS011;1916;51.798;12.246;2023-04-06T11:56:39;8.10;;;6.17;;
3801;SDS011;1916;51.798;12.246;2023-04-06T11:58:42;9.37;;;7.07;;
3801;SDS011;1916;51.798;12.246;2023-04-06T12:00:44;8.30;;;6.53;;
3801;SDS011;1916;51.798;12.246;2023-04-06T12:02:48;8.33;;;6.90;;
3801;SDS011;1916;51.798;12.246;2023-04-06T12:04:51;9.47;;;6.30;;
3801;SDS011;1916;51.798;12.246;2023-04-06T12:06:54;9.33;;;7.00;;
3801;SDS011;1916;51.798;12.246;2023-04-06T12:08:57;8.07;;;6.90;;
3801;SDS011;1916;51.798;12.246;2023-04-06T12:11:00;7.67;;;6.87;;
3801;SDS011;1916;51.798;12.246;2023-04-06T12:13:02;7.70;;;6.90;;
3801;SDS011;1916;51.798;12.246;2023-04-06T12:15:04;10.70;;;6.50;;
3801;SDS011;1916;51.798;12.246;2023-04-06T12:17:07;8.10;;;6.87;;
3801;SDS011;1916;51.798;12.246;2023-04-06T12:19:09;9.13;;;6.70;;
3801;SDS011;1916;51.798;12.246;2023-04-06T12:21:12;7.00;;;6.30;;
3801;SDS011;1916;51.798;12.246;2023-04-06T12:23:14;8.10;;;6.13;;
3801;SDS011;1916;51.798;12.246;2023-04-06T12:25:17;7.83;;;7.03;;
3801;SDS011;1916;51.798;12.246;2023-04-06T12:27:19;7.23;;;6.50;;
3801;SDS011;1916;51.798;12.246;2023-04-06T12:29:21;7.63;;;6.07;;
3801;SDS011;1916;51.798;12.246;2023-04-06T12:31:24;7.37;;;6.27;;
3801;SDS011;1916;51.798;12.246;2023-04-06T12:33:27;8.63;;;7.07;;
3801;SDS011;1916;51.798;12.246;2023-04-06T12:35:33;11.33;;;6.90;;
3801;SDS011;1916;51.798;12.246;2023-04-06T12:37:35;8.17;;;7.37;;
3801;SDS011;1916;51.798;12.246;2023-04-06T12:39:38;10.67;;;6.90;;
3801;SDS011;1916;51.798;12.246;2023-04-06T12:41:41;8.23;;;6.50;;
3801;SDS011;1916;51.798;12.246;2023-04-06T12:43:43;7.50;;;6.27;;